createdAt,value
2023-02-27T00:01:45.524Z,-0.20
2023-02-27T00:04:12.295Z,-0.20
2023-02-27T00:06:39.082Z,-0.30
2023-02-27T00:09:05.805Z,-0.30
2023-02-27T00:11:38.500Z,-0.30
2023-02-27T00:14:09.583Z,-0.30
2023-02-27T00:16:38.390Z,-0.40
2023-02-27T00:19:05.103Z,-0.40
2023-02-27T00:21:36.762Z,-0.30
2023-02-27T00:24:04.077Z,-0.30
2023-02-27T00:26:30.757Z,-0.30
2023-02-27T00:28:57.489Z,-0.40
2023-02-27T00:31:24.438Z,-0.40
2023-02-27T00:33:51.213Z,-0.40
2023-02-27T00:36:18.069Z,-0.50
2023-02-27T00:38:45.277Z,-0.40
2023-02-27T00:41:11.924Z,-0.40
2023-02-27T00:43:38.651Z,-0.40
2023-02-27T00:46:10.255Z,-0.50
2023-02-27T00:48:37.179Z,-0.60
2023-02-27T00:51:06.384Z,-0.60
2023-02-27T00:53:37.802Z,-0.60
2023-02-27T00:56:07.680Z,-0.60
2023-02-27T00:58:34.336Z,-0.60
2023-02-27T01:01:03.256Z,-0.70
2023-02-27T01:03:30.054Z,-0.70
2023-02-27T01:05:57.546Z,-0.60
2023-02-27T01:08:24.201Z,-0.60
2023-02-27T01:10:55.126Z,-0.60
2023-02-27T01:13:22.497Z,-0.60
2023-02-27T01:15:51.996Z,-0.70
2023-02-27T01:18:23.399Z,-0.70
2023-02-27T01:20:56.358Z,-0.80
2023-02-27T01:23:23.910Z,-0.70
2023-02-27T01:25:53.061Z,-0.70
2023-02-27T01:28:19.807Z,-0.60
2023-02-27T01:30:46.865Z,-0.70
2023-02-27T01:33:13.687Z,-0.80
2023-02-27T01:35:42.609Z,-0.80
2023-02-27T01:38:09.413Z,-0.80
2023-02-27T01:40:42.409Z,-0.70
2023-02-27T01:43:15.893Z,-0.70
2023-02-27T01:45:47.737Z,-0.70
2023-02-27T01:48:26.789Z,-0.80
2023-02-27T01:51:06.279Z,-0.70
2023-02-27T01:53:35.382Z,-0.70
2023-02-27T01:56:14.390Z,-0.70
2023-02-27T01:58:42.431Z,-0.70
2023-02-27T02:01:09.240Z,-0.70
2023-02-27T02:03:50.653Z,-0.50
2023-02-27T02:06:17.853Z,-0.70
2023-02-27T02:08:48.493Z,-0.60
2023-02-27T02:11:20.700Z,-0.70
2023-02-27T02:13:51.136Z,-0.70
2023-02-27T02:16:44.788Z,-0.70
2023-02-27T02:19:20.762Z,-0.90
2023-02-27T03:54:09.683Z,-1.10
2023-02-27T03:56:48.987Z,-1.10
2023-02-27T03:59:18.734Z,-1.10
2023-02-27T04:01:45.837Z,-1.30
2023-02-27T04:04:15.163Z,-1.30
2023-02-27T04:07:06.729Z,-1.40
2023-02-27T04:09:54.831Z,-1.40
2023-02-27T04:12:52.211Z,-1.30
2023-02-27T04:15:31.207Z,-1.40
2023-02-27T04:18:26.940Z,-1.50
2023-02-27T04:21:08.047Z,-1.50
2023-02-27T04:23:46.277Z,-1.50
2023-02-27T04:26:22.965Z,-1.50
2023-02-27T04:28:55.839Z,-1.60
2023-02-27T04:31:31.037Z,-1.60
2023-02-27T04:34:08.217Z,-1.60
2023-02-27T04:36:56.313Z,-1.60
2023-02-27T04:39:38.511Z,-1.60
2023-02-27T04:42:16.141Z,-1.70
2023-02-27T04:44:44.729Z,-1.80
2023-02-27T04:47:14.073Z,-1.80
2023-02-27T04:49:47.260Z,-1.90
2023-02-27T04:52:38.152Z,-1.90
2023-02-27T04:55:43.787Z,-1.90
2023-02-27T04:58:20.403Z,-1.80
2023-02-27T05:01:09.228Z,-1.80
2023-02-27T05:03:40.818Z,-1.80
2023-02-27T05:06:11.588Z,-1.90
2023-02-27T05:08:49.932Z,-1.80
2023-02-27T05:11:49.502Z,-1.80
2023-02-27T05:14:20.852Z,-1.80
2023-02-27T05:16:50.384Z,-1.70
2023-02-27T05:19:17.652Z,-1.80
2023-02-27T05:22:03.133Z,-1.80
2023-02-27T05:24:38.760Z,-1.80
2023-02-27T05:27:30.992Z,-1.80
2023-02-27T05:30:29.125Z,-1.70
2023-02-27T05:33:12.843Z,-1.70
2023-02-27T05:35:54.646Z,-1.90
2023-02-27T05:38:47.626Z,-1.80
2023-02-27T05:41:25.176Z,-1.90
2023-02-27T05:43:58.097Z,-2.00
2023-02-27T05:46:30.291Z,-1.90
2023-02-27T05:49:03.998Z,-1.80
2023-02-27T05:51:36.628Z,-1.80
2023-02-27T05:54:13.630Z,-1.60
2023-02-27T05:56:48.477Z,-1.60
2023-02-27T05:59:26.011Z,-1.60
2023-02-27T06:01:54.914Z,-1.70
2023-02-27T06:04:21.597Z,-1.60
2023-02-27T06:06:48.721Z,-1.70
2023-02-27T06:09:16.610Z,-1.80
2023-02-27T06:11:48.048Z,-1.90
2023-02-27T06:14:16.858Z,-2.00
2023-02-27T06:16:43.644Z,-2.00
2023-02-27T06:19:10.423Z,-1.90
2023-02-27T06:21:39.539Z,-1.80
2023-02-27T06:24:09.014Z,-1.90
2023-02-27T06:26:40.397Z,-1.90
2023-02-27T06:29:07.098Z,-1.80
2023-02-27T06:31:36.233Z,-1.80
2023-02-27T06:34:02.986Z,-1.80
2023-02-27T06:36:30.055Z,-1.80
2023-02-27T06:38:57.975Z,-1.70
2023-02-27T06:41:24.677Z,-1.70
2023-02-27T06:43:53.909Z,-1.50
2023-02-27T06:46:20.649Z,-1.40
2023-02-27T06:48:47.377Z,-1.40
2023-02-27T06:51:14.087Z,-1.20
2023-02-27T06:53:43.257Z,-1.30
2023-02-27T06:56:12.163Z,-1.30
2023-02-27T06:58:38.905Z,-1.30
2023-02-27T07:01:05.737Z,-1.20
2023-02-27T07:03:32.608Z,-1.30
2023-02-27T07:05:59.687Z,-1.30
2023-02-27T07:08:28.875Z,-1.20
2023-02-27T07:10:55.594Z,-1.10
2023-02-27T07:13:24.541Z,-1.00
2023-02-27T07:15:52.347Z,-0.90
2023-02-27T07:18:19.114Z,-0.90
2023-02-27T07:20:45.824Z,-0.90
2023-02-27T07:23:12.522Z,-0.80
2023-02-27T07:28:06.727Z,-0.80
2023-02-27T07:30:33.770Z,-0.60
2023-02-27T07:33:00.467Z,-0.60
2023-02-27T07:35:28.236Z,-0.60
2023-02-27T07:37:55.041Z,-0.60
2023-02-27T07:40:21.716Z,-0.60
2023-02-27T07:42:49.737Z,-0.50
2023-02-27T07:45:20.561Z,-0.40
2023-02-27T07:47:47.348Z,-0.30
2023-02-27T07:50:14.134Z,-0.20
2023-02-27T07:55:12.903Z,-0.10
2023-02-27T07:57:39.955Z,0.00
2023-02-27T08:00:09.412Z,0.10
2023-02-27T08:02:38.974Z,0.10
2023-02-27T08:05:06.665Z,0.10
2023-02-27T08:07:33.448Z,0.10
2023-02-27T08:10:02.495Z,0.10
2023-02-27T08:12:29.176Z,0.10
2023-02-27T08:56:52.359Z,1.00
2023-02-27T08:59:19.117Z,1.20
2023-02-27T09:01:45.892Z,1.20
2023-02-27T09:04:13.097Z,1.30
2023-02-27T09:06:40.248Z,1.30
2023-02-27T09:09:09.414Z,1.30
2023-02-27T09:11:38.675Z,1.30
2023-02-27T09:14:06.192Z,1.40
2023-02-27T09:16:32.980Z,1.40
2023-02-27T09:19:01.846Z,1.40
2023-02-27T09:21:31.322Z,1.50
2023-02-27T09:24:07.376Z,1.50
2023-02-27T09:26:46.409Z,1.50
2023-02-27T09:29:13.619Z,1.50
2023-02-27T09:31:43.005Z,1.70
2023-02-27T09:34:09.697Z,1.80
2023-02-27T09:36:37.554Z,1.90
2023-02-27T09:39:04.422Z,2.00
2023-02-27T09:41:46.536Z,2.10
2023-02-27T09:44:39.765Z,2.20
2023-02-27T09:47:24.502Z,2.20
2023-02-27T09:50:03.504Z,2.40
2023-02-27T09:52:36.405Z,2.40
2023-02-27T09:55:06.432Z,2.40
2023-02-27T09:57:41.124Z,2.40
2023-02-27T10:00:27.878Z,2.50
2023-02-27T10:03:09.759Z,2.60
2023-02-27T10:05:59.636Z,2.60
2023-02-27T10:08:46.074Z,2.70
2023-02-27T10:11:17.199Z,2.60
2023-02-27T10:13:46.955Z,2.60
2023-02-27T10:16:19.816Z,2.60
2023-02-27T10:19:06.455Z,2.70
2023-02-27T10:21:43.280Z,2.90
2023-02-27T10:24:27.571Z,3.10
2023-02-27T10:26:59.025Z,3.10
2023-02-27T10:29:36.584Z,3.10
2023-02-27T10:32:03.820Z,3.50
2023-02-27T10:34:32.806Z,3.10
2023-02-27T10:37:02.217Z,3.20
2023-02-27T10:52:07.890Z,3.30
2023-02-27T10:54:37.361Z,3.50
2023-02-27T10:57:29.037Z,3.60
2023-02-27T11:02:44.405Z,3.70
2023-02-27T11:05:36.032Z,4.00
2023-02-27T11:08:23.192Z,4.10
2023-02-27T11:11:01.993Z,4.00
2023-02-27T11:13:40.245Z,4.10
2023-02-27T11:16:17.641Z,4.20
2023-02-27T11:18:46.397Z,4.10
2023-02-27T11:21:27.424Z,4.20
2023-02-27T11:23:57.419Z,4.20
2023-02-27T11:26:30.838Z,4.10
2023-02-27T11:29:20.075Z,4.20
2023-02-27T11:31:48.767Z,4.20
2023-02-27T11:34:22.434Z,4.00
2023-02-27T11:36:54.333Z,4.10
2023-02-27T11:39:28.235Z,3.90
2023-02-27T11:55:03.881Z,4.10
2023-02-27T11:57:38.544Z,4.20
2023-02-27T12:18:32.103Z,4.70
2023-02-27T12:21:10.194Z,4.90
2023-02-27T12:24:02.948Z,4.90
2023-02-27T12:26:39.906Z,5.20
2023-02-27T12:29:15.151Z,5.40
2023-02-27T12:32:20.626Z,5.40
2023-02-27T12:35:16.272Z,5.30
2023-02-27T12:37:45.376Z,5.40
2023-02-27T12:40:16.063Z,5.50
2023-02-27T12:43:07.158Z,5.40
2023-02-27T12:45:33.858Z,5.40
2023-02-27T12:48:06.150Z,5.40
2023-02-27T12:50:45.297Z,5.50
2023-02-27T12:53:30.081Z,5.70
2023-02-27T12:56:07.322Z,6.00
2023-02-27T12:58:59.296Z,6.00
2023-02-27T13:01:32.337Z,6.00
2023-02-27T13:04:06.998Z,6.10
2023-02-27T13:06:49.297Z,6.20
2023-02-27T13:09:38.947Z,6.30
2023-02-27T13:12:08.690Z,6.10
2023-02-27T13:14:52.483Z,6.00
2023-02-27T13:17:24.864Z,6.00
2023-02-27T13:20:11.259Z,5.90
2023-02-27T13:22:47.529Z,5.90
2023-02-27T13:25:17.002Z,6.00
2023-02-27T13:28:02.058Z,5.90
2023-02-27T13:30:35.563Z,5.90
2023-02-27T13:33:05.096Z,5.90
2023-02-27T13:35:52.092Z,6.00
2023-02-27T13:38:33.923Z,6.10
2023-02-27T13:41:24.866Z,6.20
2023-02-27T13:43:53.489Z,6.50
2023-02-27T13:46:31.397Z,6.50
2023-02-27T13:49:04.045Z,6.40
2023-02-27T13:51:39.860Z,6.50
2023-02-27T13:54:18.263Z,6.60
2023-02-27T13:57:19.827Z,6.50
2023-02-27T13:59:54.204Z,6.50
2023-02-27T14:02:37.478Z,6.70
2023-02-27T14:05:08.268Z,6.80
2023-02-27T14:07:58.761Z,6.60
2023-02-27T14:10:30.968Z,6.40
2023-02-27T14:12:58.955Z,6.40
2023-02-27T14:15:26.198Z,6.60
2023-02-27T14:18:11.410Z,6.60
2023-02-27T14:20:42.482Z,6.60
2023-02-27T14:23:17.422Z,6.50
2023-02-27T14:25:46.166Z,6.50
2023-02-27T14:31:01.646Z,7.40
2023-02-27T14:33:55.794Z,8.20
2023-02-27T14:36:30.517Z,9.60
2023-02-27T14:38:59.453Z,9.50
2023-02-27T14:41:51.645Z,9.10
2023-02-27T14:44:27.985Z,9.60
2023-02-27T14:49:27.947Z,11.60
2023-02-27T14:54:24.878Z,14.30
2023-02-27T14:57:04.513Z,15.20
2023-02-27T15:07:34.957Z,10.80
2023-02-27T15:15:03.508Z,11.80
2023-02-27T15:22:58.629Z,10.70
2023-02-27T15:25:33.013Z,9.70
2023-02-27T15:28:04.813Z,8.80
2023-02-27T15:30:34.171Z,8.30
2023-02-27T15:33:03.583Z,7.90
2023-02-27T15:35:42.532Z,7.60
2023-02-27T15:38:24.533Z,7.40
2023-02-27T15:40:51.761Z,7.30
2023-02-27T16:03:21.316Z,6.60
2023-02-27T16:05:51.653Z,6.60
2023-02-27T16:08:20.888Z,6.50
2023-02-27T16:10:48.137Z,6.40
2023-02-27T16:13:53.101Z,6.40
2023-02-27T16:16:24.397Z,6.30
2023-02-27T16:18:54.202Z,6.20
2023-02-27T16:21:26.505Z,6.10
2023-02-27T16:23:54.392Z,6.00
2023-02-27T16:26:24.951Z,5.90
2023-02-27T16:28:56.145Z,5.80
2023-02-27T16:31:28.450Z,5.80
2023-02-27T16:33:58.583Z,5.70
2023-02-27T16:36:31.827Z,5.80
2023-02-27T16:38:58.916Z,5.70
2023-02-27T16:41:26.103Z,5.70
2023-02-27T16:43:53.768Z,5.50
2023-02-27T16:46:20.994Z,5.60
2023-02-27T16:48:53.504Z,5.50
2023-02-27T16:51:23.853Z,5.50
2023-02-27T16:53:54.944Z,5.40
2023-02-27T16:56:35.770Z,5.40
2023-02-27T16:59:06.629Z,5.50
2023-02-27T17:01:35.996Z,5.40
2023-02-27T17:04:16.555Z,5.40
2023-02-27T17:06:53.829Z,5.40
2023-02-27T17:09:20.776Z,5.30
2023-02-27T17:11:47.622Z,5.30
2023-02-27T17:14:14.408Z,5.30
2023-02-27T17:16:41.276Z,5.30
2023-02-27T17:19:08.375Z,5.20
2023-02-27T17:21:35.281Z,5.10
2023-02-27T17:24:02.140Z,5.10
2023-02-27T17:26:29.334Z,5.10
2023-02-27T17:28:56.478Z,5.10
2023-02-27T17:31:24.115Z,4.90
2023-02-27T17:33:53.882Z,4.90
2023-02-27T17:36:23.616Z,4.80
2023-02-27T17:38:57.638Z,4.80
2023-02-27T17:41:24.786Z,4.70
2023-02-27T17:43:53.553Z,4.70
2023-02-27T17:46:20.486Z,4.60
2023-02-27T17:48:47.245Z,4.60
2023-02-27T17:51:15.854Z,4.70
2023-02-27T17:53:43.657Z,4.70
2023-02-27T17:56:14.214Z,4.70
2023-02-27T17:58:45.526Z,4.70
2023-02-27T18:01:20.392Z,4.70
2023-02-27T18:03:49.312Z,4.60
2023-02-27T18:06:16.782Z,4.70
2023-02-27T18:08:43.555Z,4.70
2023-02-27T18:11:15.523Z,4.60
2023-02-27T18:13:45.379Z,4.60
2023-02-27T18:16:14.888Z,4.50
2023-02-27T18:18:42.994Z,4.40
2023-02-27T18:21:16.093Z,4.50
2023-02-27T18:23:43.268Z,4.40
2023-02-27T18:26:27.229Z,4.40
2023-02-27T18:29:00.121Z,4.30
2023-02-27T18:31:30.378Z,4.30
2023-02-27T18:33:59.923Z,4.30
2023-02-27T18:36:27.442Z,4.30
2023-02-27T18:38:54.386Z,4.30
2023-02-27T18:41:21.168Z,4.20
2023-02-27T18:43:47.960Z,4.20
2023-02-27T18:46:15.131Z,4.20
2023-02-27T18:48:44.569Z,4.10
2023-02-27T18:51:14.555Z,4.10
2023-02-27T18:53:49.022Z,4.00
2023-02-27T18:56:19.677Z,4.00
2023-02-27T18:58:49.322Z,3.80
2023-02-27T19:01:28.717Z,3.90
2023-02-27T19:04:01.591Z,3.80
2023-02-27T19:06:28.771Z,3.80
2023-02-27T19:09:00.950Z,3.80
2023-02-27T19:11:33.139Z,3.80
2023-02-27T19:14:04.036Z,3.80
2023-02-27T19:16:33.370Z,3.70
2023-02-27T19:19:00.931Z,3.60
2023-02-27T19:21:29.006Z,3.80
2023-02-27T19:23:56.328Z,3.70
2023-02-27T19:26:24.395Z,3.60
2023-02-27T19:28:53.955Z,3.50
2023-02-27T19:31:23.413Z,3.50
2023-02-27T19:33:50.525Z,3.50
2023-02-27T19:38:49.260Z,3.40
2023-02-27T19:41:17.519Z,3.40
2023-02-27T19:43:45.460Z,3.30
2023-02-27T19:46:25.309Z,3.10
2023-02-27T19:48:54.500Z,3.10
2023-02-27T19:51:24.201Z,2.90
2023-02-27T19:53:51.140Z,2.90
2023-02-27T19:56:31.145Z,2.80
2023-02-27T20:01:36.350Z,2.50
2023-02-27T20:04:03.584Z,2.50
2023-02-27T20:06:33.203Z,2.40
2023-02-27T20:09:00.316Z,2.40
2023-02-27T20:11:33.056Z,2.30
2023-02-27T20:14:03.240Z,2.20
2023-02-27T20:16:34.414Z,2.10
2023-02-27T20:19:02.745Z,2.10
2023-02-27T20:21:30.454Z,2.10
2023-02-27T20:24:00.692Z,2.00
2023-02-27T20:26:35.014Z,1.90
2023-02-27T20:29:11.044Z,1.90
2023-02-27T20:31:41.710Z,1.90
2023-02-27T20:34:10.960Z,1.80
2023-02-27T20:36:39.499Z,1.90
2023-02-27T20:39:13.132Z,1.90
2023-02-27T20:41:40.348Z,1.90
2023-02-27T20:44:11.548Z,1.90
2023-02-27T20:46:42.635Z,2.00
2023-02-27T20:49:15.566Z,2.10
2023-02-27T20:51:42.937Z,2.10
2023-02-27T20:54:13.507Z,2.20
2023-02-27T20:56:43.715Z,2.20
2023-02-27T20:59:12.300Z,2.20
2023-02-27T21:01:42.445Z,2.20
2023-02-27T21:04:09.479Z,2.10
2023-02-27T21:06:38.534Z,2.10
2023-02-27T21:09:06.385Z,2.10
2023-02-27T21:11:33.741Z,1.90
2023-02-27T21:14:06.315Z,1.90
2023-02-27T21:16:39.525Z,1.90
2023-02-27T21:19:08.886Z,1.80
2023-02-27T21:21:36.171Z,1.70
2023-02-27T21:24:06.530Z,1.60
2023-02-27T21:26:38.861Z,1.50
2023-02-27T21:29:07.583Z,1.50
2023-02-27T21:31:35.780Z,1.50
2023-02-27T21:34:07.689Z,1.50
2023-02-27T21:36:37.603Z,1.40
2023-02-27T21:39:06.887Z,1.30
2023-02-27T21:41:36.456Z,1.40
2023-02-27T21:44:05.910Z,1.40
2023-02-27T21:46:34.100Z,1.20
2023-02-27T21:49:01.273Z,1.20
2023-02-27T21:51:39.584Z,1.20
2023-02-27T21:59:05.323Z,1.10
2023-02-27T22:01:35.152Z,1.20
2023-02-27T22:04:04.973Z,1.10
2023-02-27T22:06:33.129Z,1.10
2023-02-27T22:09:02.897Z,1.20
2023-02-27T22:11:30.809Z,1.20
2023-02-27T22:13:57.966Z,1.30
2023-02-27T22:16:25.031Z,1.30
2023-02-27T22:18:51.939Z,1.50
2023-02-27T22:21:25.398Z,1.50
2023-02-27T22:23:56.600Z,1.60
2023-02-27T22:26:25.996Z,1.70
2023-02-27T22:28:53.021Z,1.60
2023-02-27T22:31:29.207Z,1.70
2023-02-27T22:34:03.035Z,1.80
2023-02-27T22:36:33.348Z,1.70
2023-02-27T22:39:00.431Z,1.60
2023-02-27T22:41:31.112Z,1.60
2023-02-27T22:43:59.782Z,1.70
2023-02-27T22:46:31.076Z,1.70
2023-02-27T22:49:02.572Z,1.60
2023-02-27T22:51:30.773Z,1.60
2023-02-27T22:53:59.912Z,1.60
2023-02-27T22:56:26.811Z,1.60
2023-02-27T22:58:55.924Z,1.60
2023-02-27T23:01:29.082Z,1.60
2023-02-27T23:04:02.179Z,1.60
2023-02-27T23:06:34.454Z,1.60
2023-02-27T23:09:07.896Z,1.50
2023-02-27T23:11:34.678Z,1.60
2023-02-27T23:14:01.419Z,2.20
2023-02-27T23:16:30.384Z,1.60
2023-02-27T23:18:59.034Z,1.60
2023-02-27T23:21:31.878Z,1.60
2023-02-27T23:24:03.899Z,1.60
2023-02-27T23:26:30.716Z,1.70
2023-02-27T23:28:59.809Z,1.60
2023-02-27T23:31:26.832Z,1.50
2023-02-27T23:33:53.965Z,1.60
2023-02-27T23:36:23.071Z,1.50
2023-02-27T23:38:49.851Z,1.40
2023-02-27T23:41:20.705Z,1.50
2023-02-27T23:43:51.427Z,1.50
2023-02-27T23:46:18.354Z,1.50
2023-02-27T23:48:45.556Z,1.70
2023-02-27T23:51:12.494Z,1.50
2023-02-27T23:53:40.911Z,1.40
2023-02-27T23:56:25.163Z,1.40
2023-02-27T23:59:01.138Z,1.40
